Time;durP1;ratioP1;P1;durP2;ratioP2;P2;SDS_P1;SDS_P2;PMS_P1;PMS_P2;Temp;Humidity;BMP_temperature;BMP_pressure;BME280_temperature;BME280_humidity;BME280_pressure;Samples;Min_cycle;Max_cycle;Signal;HPM_P1;HPM_P2
2022/05/09 00:01:14;;;;;;;7.00;1.35;;;;;16.60;102654.00;;;;5054356;28;20295;-77
2022/05/09 00:03:42;;;;;;;1.55;0.82;;;;;16.60;102646.00;;;;5058348;28;20202;-77
2022/05/09 00:06:11;;;;;;;5.57;1.40;;;;;16.50;102648.00;;;;5052553;28;20250;-77
2022/05/09 00:08:39;;;;;;;1.70;0.90;;;;;16.50;102640.00;;;;5049613;28;20222;-77
2022/05/09 00:11:07;;;;;;;9.52;1.30;;;;;16.50;102643.00;;;;5054810;28;20231;-77
2022/05/09 00:13:34;;;;;;;3.20;1.48;;;;;16.50;102647.00;;;;5058258;28;20639;-77
2022/05/09 00:16:02;;;;;;;2.50;1.00;;;;;16.40;102645.00;;;;5045112;28;20195;-77
2022/05/09 00:18:29;;;;;;;3.20;1.55;;;;;16.40;102634.00;;;;5058342;28;20724;-77
2022/05/09 00:20:56;;;;;;;5.72;1.25;;;;;16.40;102641.00;;;;5048811;28;20250;-77
2022/05/09 00:23:25;;;;;;;2.80;1.13;;;;;16.30;102633.00;;;;5061916;28;20722;-77
2022/05/09 00:25:52;;;;;;;5.55;1.80;;;;;16.30;102623.00;;;;5052574;28;20187;-77
2022/05/09 00:28:20;;;;;;;3.40;1.20;;;;;16.30;102623.00;;;;5046543;28;20207;-77
2022/05/09 00:30:48;;;;;;;3.08;1.55;;;;;16.30;102626.00;;;;5046077;28;20210;-77
2022/05/09 00:33:15;;;;;;;2.58;1.10;;;;;16.20;102621.00;;;;5055142;28;20215;-77
2022/05/09 00:35:44;;;;;;;2.88;0.77;;;;;16.20;102623.00;;;;5054327;28;21613;-77
2022/05/09 00:38:11;;;;;;;1.48;0.95;;;;;16.20;102624.00;;;;5056579;28;20245;-77
2022/05/09 00:41:28;;;;;;;4.18;1.52;;;;;16.10;102621.00;;;;5058285;28;20198;-76
2022/05/09 00:43:31;;;;;;;3.10;1.52;;;;;16.10;102615.00;;;;5056529;28;20648;-78
2022/05/09 00:45:58;;;;;;;2.97;1.40;;;;;16.10;102616.00;;;;5048717;28;20670;-77
2022/05/09 00:48:26;;;;;;;3.40;1.27;;;;;16.10;102612.00;;;;5048902;28;20211;-77
2022/05/09 00:50:54;;;;;;;4.18;1.42;;;;;16.10;102608.00;;;;5058024;28;20593;-77
2022/05/09 00:53:22;;;;;;;5.75;1.20;;;;;16.00;102611.00;;;;5065747;28;20239;-77
2022/05/09 00:55:55;;;;;;;3.83;1.55;;;;;16.00;102609.00;;;;5048212;28;20256;-77
2022/05/09 00:58:25;;;;;;;5.03;0.95;;;;;16.00;102610.00;;;;5045919;28;20200;-76
2022/05/09 01:00:55;;;;;;;3.88;1.40;;;;;16.00;102608.00;;;;5049379;28;20258;-77
2022/05/09 01:03:27;;;;;;;2.65;1.30;;;;;16.00;102610.00;;;;5064796;28;20203;-76
2022/05/09 01:05:54;;;;;;;7.22;1.42;;;;;15.90;102608.00;;;;5051102;28;20210;-77
2022/05/09 01:08:25;;;;;;;4.57;1.60;;;;;15.90;102606.00;;;;5059089;28;20196;-77
2022/05/09 01:10:55;;;;;;;5.93;1.48;;;;;15.90;102601.00;;;;5054174;28;20196;-77
2022/05/09 01:13:25;;;;;;;2.53;1.23;;;;;15.90;102597.00;;;;5060744;28;20230;-77
2022/05/09 01:15:55;;;;;;;6.20;1.13;;;;;15.90;102603.00;;;;5045426;28;20207;-77
2022/05/09 01:18:22;;;;;;;3.35;1.20;;;;;15.90;102591.00;;;;5051701;28;20230;-77
2022/05/09 01:20:52;;;;;;;3.63;1.40;;;;;15.80;102592.00;;;;5062096;28;20215;-77
2022/05/09 01:23:21;;;;;;;4.53;1.90;;;;;15.80;102595.00;;;;5053739;28;20195;-77
2022/05/09 01:25:49;;;;;;;5.15;1.55;;;;;15.80;102587.00;;;;5068808;28;20250;-77
2022/05/09 01:28:16;;;;;;;5.35;1.25;;;;;15.80;102594.00;;;;5068985;28;20274;-77
2022/05/09 01:30:51;;;;;;;4.45;1.48;;;;;15.70;102584.00;;;;5068038;28;20191;-77
2022/05/09 01:33:21;;;;;;;3.08;1.02;;;;;15.70;102590.00;;;;5053566;28;20221;-77
2022/05/09 01:35:53;;;;;;;3.70;1.13;;;;;15.70;102588.00;;;;5055788;28;20223;-77
2022/05/09 01:38:27;;;;;;;3.10;1.02;;;;;15.70;102594.00;;;;5057174;28;20209;-77
2022/05/09 01:40:54;;;;;;;5.22;1.85;;;;;15.70;102591.00;;;;5058331;28;20206;-77
2022/05/09 01:43:35;;;;;;;2.67;0.90;;;;;15.60;102591.00;;;;5050218;28;20214;-77
2022/05/09 01:46:04;;;;;;;4.00;1.15;;;;;15.70;102589.00;;;;5054924;28;20203;-77
2022/05/09 01:51:17;;;;;;;4.93;1.83;;;;;15.60;102584.00;;;;5054457;28;20280;-77
2022/05/09 01:53:49;;;;;;;4.03;1.38;;;;;15.60;102582.00;;;;5058078;28;20227;-77
2022/05/09 01:56:17;;;;;;;3.53;1.70;;;;;15.60;102584.00;;;;5065709;28;20277;-77
2022/05/09 01:58:44;;;;;;;2.72;1.60;;;;;15.60;102578.00;;;;5053752;28;20215;-77
2022/05/09 02:01:11;;;;;;;5.05;2.22;;;;;15.50;102575.00;;;;5055653;28;20297;-77
2022/05/09 02:03:39;;;;;;;3.90;1.25;;;;;15.50;102578.00;;;;5049855;28;20203;-76
2022/05/09 02:06:08;;;;;;;5.28;1.52;;;;;15.50;102579.00;;;;5053997;28;20834;-77
2022/05/09 02:08:37;;;;;;;4.97;1.52;;;;;15.50;102584.00;;;;5050422;28;20306;-76
2022/05/09 02:11:06;;;;;;;5.40;1.17;;;;;15.40;102584.00;;;;5051232;28;20684;-77
2022/05/09 02:13:33;;;;;;;4.57;1.73;;;;;15.40;102581.00;;;;5062133;28;20231;-77
2022/05/09 02:16:01;;;;;;;3.08;1.58;;;;;15.40;102585.00;;;;5068101;28;20219;-77
2022/05/09 02:18:28;;;;;;;4.07;2.00;;;;;15.40;102579.00;;;;5057893;28;20191;-77
2022/05/09 02:20:55;;;;;;;2.60;1.02;;;;;15.40;102581.00;;;;5062810;28;20645;-77
2022/05/09 02:23:22;;;;;;;2.33;1.20;;;;;15.40;102583.00;;;;5060181;28;20206;-77
2022/05/09 02:25:50;;;;;;;3.08;1.33;;;;;15.40;102586.00;;;;5050328;28;20207;-77
2022/05/09 02:28:21;;;;;;;4.70;1.83;;;;;15.30;102589.00;;;;5048673;28;20523;-76
2022/05/09 02:30:48;;;;;;;3.85;1.75;;;;;15.30;102585.00;;;;5048642;28;20200;-77
2022/05/09 02:33:16;;;;;;;6.75;1.88;;;;;15.30;102578.00;;;;5049192;28;20210;-77
2022/05/09 02:35:44;;;;;;;2.45;1.17;;;;;15.30;102575.00;;;;5049960;28;20235;-77
2022/05/09 02:38:12;;;;;;;4.97;1.17;;;;;15.30;102573.00;;;;5055523;28;20206;-76
2022/05/09 02:40:40;;;;;;;4.18;1.60;;;;;15.30;102568.00;;;;5065367;28;20195;-77
2022/05/09 02:43:07;;;;;;;3.80;1.48;;;;;15.20;102570.00;;;;5062784;28;20689;-77
2022/05/09 02:45:36;;;;;;;4.60;1.65;;;;;15.20;102568.00;;;;5070036;28;20206;-77
2022/05/09 02:48:04;;;;;;;4.93;1.95;;;;;15.20;102567.00;;;;5052473;28;20219;-77
2022/05/09 02:50:32;;;;;;;3.10;1.83;;;;;15.20;102562.00;;;;5052158;28;20636;-76
2022/05/09 02:52:59;;;;;;;3.40;1.73;;;;;15.20;102569.00;;;;5057419;28;20233;-77
2022/05/09 02:55:26;;;;;;;3.92;1.45;;;;;15.20;102559.00;;;;5050291;28;20712;-77
2022/05/09 02:57:53;;;;;;;3.55;1.45;;;;;15.10;102556.00;;;;5050794;28;20199;-76
2022/05/09 03:00:23;;;;;;;3.95;2.28;;;;;15.10;102555.00;;;;5061084;28;20203;-77
2022/05/09 03:05:35;;;;;;;10.07;1.83;;;;;15.10;102560.00;;;;5015148;28;20203;-77
2022/05/09 03:08:03;;;;;;;4.82;1.40;;;;;15.10;102560.00;;;;5057952;28;20199;-77
2022/05/09 03:10:31;;;;;;;5.95;1.83;;;;;15.10;102564.00;;;;5063633;28;20207;-78
2022/05/09 03:12:59;;;;;;;3.25;1.35;;;;;15.10;102554.00;;;;5047510;28;20206;-78
2022/05/09 03:15:27;;;;;;;2.65;1.10;;;;;15.10;102560.00;;;;5056971;28;20337;-77
2022/05/09 03:17:56;;;;;;;6.00;2.22;;;;;15.10;102554.00;;;;5056838;28;20845;-77
2022/05/09 03:20:24;;;;;;;4.63;1.63;;;;;15.10;102558.00;;;;5061083;28;20195;-77
2022/05/09 03:22:51;;;;;;;6.65;1.80;;;;;15.10;102553.00;;;;5055559;28;20203;-77
2022/05/09 03:25:19;;;;;;;2.42;1.25;;;;;15.00;102547.00;;;;5055927;28;21260;-78
2022/05/09 03:27:46;;;;;;;9.98;2.17;;;;;15.00;102547.00;;;;5055430;28;20195;-78
2022/05/09 03:30:16;;;;;;;6.18;2.10;;;;;15.00;102542.00;;;;5059226;28;20204;-78
2022/05/09 03:32:44;;;;;;;2.92;1.48;;;;;15.00;102544.00;;;;5049335;28;20195;-78
2022/05/09 03:35:14;;;;;;;3.38;1.83;;;;;15.00;102547.00;;;;5046221;28;20595;-77
2022/05/09 03:37:42;;;;;;;4.85;1.73;;;;;15.00;102543.00;;;;5052316;28;20259;-78
2022/05/09 03:40:11;;;;;;;5.78;1.67;;;;;15.00;102545.00;;;;5057688;28;20215;-78
2022/05/09 03:42:39;;;;;;;3.67;1.48;;;;;14.90;102546.00;;;;5046710;28;20196;-77
2022/05/09 03:45:08;;;;;;;2.83;1.45;;;;;14.90;102549.00;;;;5067322;28;20187;-77
2022/05/09 03:47:35;;;;;;;2.60;1.73;;;;;14.90;102543.00;;;;5047383;28;20223;-78
2022/05/09 03:50:03;;;;;;;4.57;1.42;;;;;14.90;102541.00;;;;5047974;28;20202;-77
2022/05/09 03:52:31;;;;;;;3.72;1.50;;;;;14.90;102532.00;;;;5054700;28;20191;-77
2022/05/09 03:54:58;;;;;;;4.75;1.55;;;;;14.90;102529.00;;;;5049769;28;20943;-78
2022/05/09 03:57:26;;;;;;;4.25;1.63;;;;;14.90;102533.00;;;;5048835;28;20681;-78
2022/05/09 03:59:53;;;;;;;4.97;1.65;;;;;14.80;102528.00;;;;5049394;28;20730;-78
2022/05/09 04:02:20;;;;;;;5.88;1.73;;;;;14.80;102527.00;;;;5044155;28;20196;-77
2022/05/09 04:04:48;;;;;;;4.35;1.50;;;;;14.80;102526.00;;;;5046494;28;20349;-77
2022/05/09 04:07:19;;;;;;;4.45;1.80;;;;;14.80;102525.00;;;;5047875;28;20565;-78
2022/05/09 04:09:47;;;;;;;4.75;2.00;;;;;14.80;102527.00;;;;5052836;28;20192;-78
2022/05/09 04:12:15;;;;;;;4.18;2.00;;;;;14.80;102521.00;;;;5047079;28;20202;-78
2022/05/09 04:17:27;;;;;;;4.53;1.55;;;;;14.80;102519.00;;;;5047549;28;20206;-78
2022/05/09 04:19:54;;;;;;;3.35;1.83;;;;;14.80;102512.00;;;;5054491;28;20206;-77
2022/05/09 04:22:21;;;;;;;7.13;1.58;;;;;14.70;102512.00;;;;5048594;28;20203;-78
2022/05/09 04:24:50;;;;;;;5.50;1.60;;;;;14.70;102513.00;;;;5052384;28;20203;-77
2022/05/09 04:27:17;;;;;;;5.38;1.60;;;;;14.80;102514.00;;;;5061451;28;20583;-77
2022/05/09 04:29:47;;;;;;;4.63;2.15;;;;;14.70;102515.00;;;;5053491;28;20207;-76
2022/05/09 04:32:14;;;;;;;3.75;2.00;;;;;14.70;102518.00;;;;5049855;28;20770;-76
2022/05/09 04:34:41;;;;;;;2.38;1.85;;;;;14.70;102511.00;;;;5053882;28;20219;-76
2022/05/09 04:37:08;;;;;;;5.25;1.88;;;;;14.70;102514.00;;;;5063778;28;20419;-76
2022/05/09 04:39:35;;;;;;;2.67;1.35;;;;;14.80;102511.00;;;;5049660;28;20204;-77
2022/05/09 04:42:05;;;;;;;6.88;2.03;;;;;14.80;102509.00;;;;5048428;28;20191;-77
2022/05/09 04:44:32;;;;;;;6.35;1.80;;;;;14.80;102512.00;;;;5052456;28;20248;-77
2022/05/09 04:46:59;;;;;;;4.93;1.67;;;;;14.80;102510.00;;;;5056634;28;20696;-78
2022/05/09 04:49:26;;;;;;;3.88;1.63;;;;;14.80;102513.00;;;;5044915;28;20196;-77
2022/05/09 04:51:53;;;;;;;6.50;1.88;;;;;14.80;102523.00;;;;5055684;28;20286;-77
2022/05/09 04:54:21;;;;;;;7.18;2.08;;;;;14.90;102517.00;;;;5052301;28;20219;-77
2022/05/09 04:56:48;;;;;;;4.32;1.92;;;;;14.90;102524.00;;;;5050263;28;20195;-77
2022/05/09 04:59:16;;;;;;;3.35;1.80;;;;;14.90;102518.00;;;;5054358;28;20253;-77
2022/05/09 05:01:44;;;;;;;4.03;1.70;;;;;15.00;102509.00;;;;5053636;28;20211;-77
2022/05/09 05:04:11;;;;;;;6.05;1.98;;;;;15.00;102512.00;;;;5063951;28;20290;-77
2022/05/09 05:06:38;;;;;;;4.55;1.80;;;;;15.10;102509.00;;;;5050628;28;20249;-78
2022/05/09 05:09:06;;;;;;;3.58;1.52;;;;;15.10;102503.00;;;;5052787;28;20198;-78
2022/05/09 05:11:33;;;;;;;6.78;2.20;;;;;15.10;102499.00;;;;5047977;28;20207;-77
2022/05/09 05:14:00;;;;;;;6.43;1.83;;;;;15.20;102501.00;;;;5051095;28;20561;-78
2022/05/09 05:19:10;;;;;;;5.75;1.52;;;;;15.30;102494.00;;;;5064991;28;20669;-78
2022/05/09 05:21:37;;;;;;;4.88;1.85;;;;;15.40;102500.00;;;;5047771;28;20199;-77
2022/05/09 05:24:05;;;;;;;3.97;1.73;;;;;15.40;102504.00;;;;5052814;28;20230;-78
2022/05/09 05:26:32;;;;;;;4.25;1.73;;;;;15.50;102500.00;;;;5054077;28;20218;-78
2022/05/09 05:28:59;;;;;;;4.40;1.92;;;;;15.50;102497.00;;;;5052548;28;20202;-78
2022/05/09 05:31:31;;;;;;;4.47;2.55;;;;;15.60;102503.00;;;;5055292;28;20199;-77
2022/05/09 05:33:58;;;;;;;6.82;1.90;;;;;15.60;102499.00;;;;5049120;28;20203;-78
2022/05/09 05:36:26;;;;;;;5.90;1.65;;;;;15.70;102500.00;;;;5054490;28;20792;-76
2022/05/09 05:38:53;;;;;;;5.13;1.90;;;;;15.80;102495.00;;;;5055654;28;20196;-77
2022/05/09 05:41:21;;;;;;;3.80;1.52;;;;;15.90;102494.00;;;;5050860;28;20242;-77
2022/05/09 05:43:48;;;;;;;4.03;2.15;;;;;15.90;102500.00;;;;5051855;28;20203;-77
2022/05/09 05:46:15;;;;;;;4.80;1.58;;;;;16.00;102492.00;;;;5056431;28;20206;-77
2022/05/09 05:48:44;;;;;;;3.70;1.70;;;;;16.10;102496.00;;;;5054772;28;20253;-77
2022/05/09 05:51:14;;;;;;;3.95;1.60;;;;;16.20;102498.00;;;;5063020;28;20456;-78
2022/05/09 05:53:41;;;;;;;5.97;2.17;;;;;16.20;102497.00;;;;5068626;28;20280;-78
2022/05/09 05:56:08;;;;;;;2.83;1.55;;;;;16.30;102496.00;;;;5058399;28;20219;-78
2022/05/09 05:58:36;;;;;;;3.25;1.63;;;;;16.40;102494.00;;;;5063760;28;20196;-76
2022/05/09 06:01:03;;;;;;;7.43;1.70;;;;;16.50;102495.00;;;;5052452;28;20575;-78
2022/05/09 06:03:31;;;;;;;7.35;1.90;;;;;16.60;102498.00;;;;5056131;28;20211;-76
2022/05/09 06:05:59;;;;;;;4.63;1.90;;;;;16.70;102500.00;;;;5050526;28;20214;-76
2022/05/09 06:08:26;;;;;;;4.60;1.80;;;;;16.70;102506.00;;;;5049270;28;20211;-76
2022/05/09 06:10:54;;;;;;;4.78;2.03;;;;;16.80;102511.00;;;;5062444;28;20194;-76
2022/05/09 06:13:21;;;;;;;4.35;2.10;;;;;16.90;102506.00;;;;5060715;28;20192;-76
2022/05/09 06:15:49;;;;;;;4.05;1.83;;;;;17.00;102505.00;;;;5050448;28;20250;-74
2022/05/09 06:18:16;;;;;;;5.38;1.80;;;;;17.10;102511.00;;;;5050580;28;20199;-76
2022/05/09 06:20:44;;;;;;;4.30;1.90;;;;;17.20;102503.00;;;;5050573;28;20650;-76
2022/05/09 06:23:16;;;;;;;4.72;1.95;;;;;17.20;102510.00;;;;5051389;28;20202;-76
2022/05/09 06:25:46;;;;;;;2.92;1.70;;;;;17.40;102506.00;;;;5057569;28;20199;-76
2022/05/09 06:28:15;;;;;;;5.32;2.05;;;;;17.40;102509.00;;;;5057819;28;20281;-76
2022/05/09 06:30:42;;;;;;;6.20;2.28;;;;;17.60;102508.00;;;;5058706;28;20283;-75
2022/05/09 06:33:10;;;;;;;4.53;2.05;;;;;17.70;102506.00;;;;5060398;28;20286;-76
2022/05/09 06:35:43;;;;;;;7.00;1.95;;;;;17.70;102507.00;;;;5050981;28;20306;-76
2022/05/09 06:38:15;;;;;;;4.00;1.88;;;;;17.90;102502.00;;;;5050373;28;20196;-76
2022/05/09 06:40:43;;;;;;;3.92;1.83;;;;;18.00;102503.00;;;;5052105;28;20200;-76
2022/05/09 06:43:10;;;;;;;4.50;1.77;;;;;18.10;102499.00;;;;5054399;28;20207;-76
2022/05/09 06:45:38;;;;;;;5.85;1.80;;;;;18.20;102495.00;;;;5057039;28;20203;-74
2022/05/09 06:48:08;;;;;;;4.35;1.77;;;;;18.30;102494.00;;;;5050556;28;20783;-74
2022/05/09 06:50:37;;;;;;;3.40;1.73;;;;;18.40;102496.00;;;;5049129;28;20195;-74
2022/05/09 06:53:05;;;;;;;3.60;1.67;;;;;18.50;102501.00;;;;5050141;28;20204;-76
2022/05/09 06:55:35;;;;;;;6.82;2.58;;;;;18.60;102496.00;;;;5049743;28;20639;-74
2022/05/09 06:58:07;;;;;;;5.68;1.92;;;;;18.70;102499.00;;;;5069875;28;20553;-74
2022/05/09 07:00:34;;;;;;;5.70;1.90;;;;;18.90;102505.00;;;;5068271;28;20234;-74
2022/05/09 07:03:01;;;;;;;5.82;2.50;;;;;19.00;102499.00;;;;5070198;28;20252;-74
2022/05/09 07:05:29;;;;;;;6.90;2.35;;;;;19.10;102501.00;;;;5068825;28;20661;-74
2022/05/09 07:07:56;;;;;;;4.38;1.90;;;;;19.20;102502.00;;;;5068580;28;20206;-74
2022/05/09 07:10:26;;;;;;;2.50;1.63;;;;;19.40;102505.00;;;;5049341;28;20204;-74
2022/05/09 07:12:56;;;;;;;5.25;2.03;;;;;19.50;102503.00;;;;5050631;28;20241;-75
2022/05/09 07:15:25;;;;;;;7.20;1.85;;;;;19.70;102506.00;;;;5049043;28;20231;-75
2022/05/09 07:17:53;;;;;;;3.17;1.55;;;;;19.80;102508.00;;;;5048598;28;20199;-75
2022/05/09 07:20:22;;;;;;;4.30;1.83;;;;;19.90;102508.00;;;;5051018;28;20216;-75
2022/05/09 07:22:51;;;;;;;5.20;2.08;;;;;20.00;102506.00;;;;5051898;28;20199;-75
2022/05/09 07:25:20;;;;;;;4.82;1.38;;;;;20.10;102503.00;;;;5048728;28;20192;-74
2022/05/09 07:27:47;;;;;;;5.60;1.92;;;;;20.30;102500.00;;;;5051698;28;20621;-74
2022/05/09 07:30:17;;;;;;;5.10;1.90;;;;;20.40;102505.00;;;;5048685;28;20196;-75
2022/05/09 07:32:45;;;;;;;3.75;1.98;;;;;20.60;102500.00;;;;5049082;28;20208;-75
2022/05/09 07:35:14;;;;;;;5.18;1.90;;;;;20.80;102505.00;;;;5049017;28;20223;-75
2022/05/09 07:37:42;;;;;;;4.88;1.70;;;;;20.90;102504.00;;;;5054561;28;20227;-75
2022/05/09 07:40:11;;;;;;;4.95;1.95;;;;;21.00;102502.00;;;;5068774;28;20199;-75
2022/05/09 07:42:40;;;;;;;5.30;2.00;;;;;21.20;102503.00;;;;5068450;28;20314;-75
2022/05/09 07:45:09;;;;;;;4.85;2.03;;;;;21.30;102506.00;;;;5068447;28;20203;-74
2022/05/09 07:47:38;;;;;;;5.82;2.40;;;;;21.50;102506.00;;;;5068756;28;20215;-75
2022/05/09 07:50:06;;;;;;;4.22;1.98;;;;;21.70;102520.00;;;;5068976;28;20218;-76
2022/05/09 07:52:34;;;;;;;8.50;2.13;;;;;21.80;102516.00;;;;5060253;28;20202;-75
2022/05/09 07:55:01;;;;;;;5.35;1.70;;;;;21.90;102512.00;;;;5048908;28;20238;-76
2022/05/09 07:57:28;;;;;;;3.67;1.58;;;;;22.10;102502.00;;;;5050024;28;20207;-75
2022/05/09 07:59:58;;;;;;;5.50;1.80;;;;;22.20;102502.00;;;;5050506;28;20196;-76
2022/05/09 08:02:25;;;;;;;3.67;1.83;;;;;22.40;102502.00;;;;5052301;28;20281;-76
2022/05/09 08:04:54;;;;;;;6.38;2.25;;;;;22.60;102506.00;;;;5065769;28;20673;-76
2022/05/09 08:07:21;;;;;;;6.03;1.77;;;;;22.70;102501.00;;;;5061283;28;20261;-76
2022/05/09 08:09:48;;;;;;;4.68;1.80;;;;;22.80;102504.00;;;;5051597;28;20195;-76
2022/05/09 08:12:16;;;;;;;5.97;1.73;;;;;23.00;102509.00;;;;5049125;28;20242;-76
2022/05/09 08:14:43;;;;;;;7.18;1.90;;;;;23.10;102507.00;;;;5047903;28;20203;-75
2022/05/09 08:17:11;;;;;;;5.43;1.60;;;;;23.20;102511.00;;;;5056845;28;20219;-76
2022/05/09 08:19:39;;;;;;;3.47;1.58;;;;;23.30;102511.00;;;;5055994;28;20287;-76
2022/05/09 08:22:08;;;;;;;3.65;1.70;;;;;23.50;102513.00;;;;5051399;28;21247;-76
2022/05/09 08:24:35;;;;;;;6.97;1.65;;;;;23.60;102513.00;;;;5050284;28;20639;-76
2022/05/09 08:27:03;;;;;;;6.68;2.35;;;;;23.80;102511.00;;;;5052529;28;20203;-76
2022/05/09 08:29:30;;;;;;;3.20;1.33;;;;;23.90;102515.00;;;;5046914;28;20249;-76
2022/05/09 08:31:57;;;;;;;4.32;2.15;;;;;24.10;102509.00;;;;5046189;28;20192;-77
2022/05/09 08:34:25;;;;;;;6.00;1.75;;;;;24.20;102506.00;;;;5053071;28;20281;-75
2022/05/09 08:36:53;;;;;;;4.38;1.58;;;;;24.40;102517.00;;;;5058659;28;20245;-76
2022/05/09 08:39:26;;;;;;;2.30;1.40;;;;;24.50;102516.00;;;;5050739;28;20639;-75
2022/05/09 08:41:57;;;;;;;3.50;1.52;;;;;24.60;102514.00;;;;5047900;28;20299;-76
2022/05/09 08:45:01;;;;;;;3.85;1.20;;;;;24.70;102510.00;;;;5057946;28;20657;-75
2022/05/09 08:47:51;;;;;;;3.97;1.95;;;;;24.90;102508.00;;;;5011694;28;20238;-76
2022/05/09 08:50:25;;;;;;;4.97;1.45;;;;;25.10;102512.00;;;;5050742;28;20654;-75
2022/05/09 08:52:58;;;;;;;3.88;1.58;;;;;25.30;102518.00;;;;5047341;28;20216;-75
2022/05/09 08:55:32;;;;;;;5.32;1.90;;;;;25.40;102512.00;;;;5047989;28;20219;-76
2022/05/09 08:58:03;;;;;;;3.30;1.02;;;;;25.60;102512.00;;;;5047417;28;20188;-77
2022/05/09 09:00:32;;;;;;;4.20;1.67;;;;;25.70;102506.00;;;;5047176;28;20282;-76
2022/05/09 09:03:11;;;;;;;3.05;1.08;;;;;25.90;102506.00;;;;5048320;28;20674;-76
2022/05/09 09:05:40;;;;;;;2.10;1.00;;;;;26.00;102503.00;;;;5047360;28;20216;-76
2022/05/09 09:08:19;;;;;;;2.95;1.58;;;;;26.10;102501.00;;;;5047048;28;20212;-76
2022/05/09 09:10:55;;;;;;;4.15;1.60;;;;;26.20;102503.00;;;;5047299;28;20298;-77
2022/05/09 09:13:39;;;;;;;2.72;1.27;;;;;26.30;102510.00;;;;5051983;28;20211;-76
2022/05/09 09:16:22;;;;;;;1.50;1.10;;;;;26.40;102501.00;;;;5047725;28;20223;-76
2022/05/09 09:19:14;;;;;;;2.45;1.10;;;;;26.60;102495.00;;;;5047249;28;20217;-76
2022/05/09 09:21:53;;;;;;;4.55;1.30;;;;;26.80;102497.00;;;;5050419;28;20192;-76
2022/05/09 09:24:43;;;;;;;4.60;1.52;;;;;26.90;102501.00;;;;5050820;28;20215;-76
2022/05/09 09:27:32;;;;;;;3.80;1.30;;;;;27.00;102490.00;;;;5047529;28;20200;-76
2022/05/09 09:30:05;;;;;;;4.60;1.08;;;;;27.30;102498.00;;;;5047414;28;20249;-76
2022/05/09 09:32:33;;;;;;;1.88;1.02;;;;;27.50;102488.00;;;;5059203;28;20707;-77
2022/05/09 09:35:06;;;;;;;5.85;1.58;;;;;27.60;102488.00;;;;5054210;28;20203;-77
2022/05/09 09:37:40;;;;;;;4.03;1.35;;;;;27.70;102493.00;;;;5049188;28;20732;-76
2022/05/09 09:40:08;;;;;;;2.10;0.90;;;;;27.90;102487.00;;;;5049752;28;20199;-76
2022/05/09 09:42:37;;;;;;;2.67;1.13;;;;;28.00;102487.00;;;;5048272;28;20211;-76
2022/05/09 09:45:19;;;;;;;2.90;1.08;;;;;28.00;102490.00;;;;5049975;28;20214;-76
2022/05/09 09:47:47;;;;;;;2.20;0.95;;;;;28.10;102484.00;;;;5060649;28;20298;-76
2022/05/09 09:50:19;;;;;;;1.85;1.00;;;;;28.20;102485.00;;;;5057282;28;20678;-76
2022/05/09 09:52:50;;;;;;;3.65;1.38;;;;;28.20;102481.00;;;;5055092;28;20219;-77
2022/05/09 09:55:25;;;;;;;2.40;1.15;;;;;28.30;102479.00;;;;5055852;28;21018;-77
2022/05/09 09:57:55;;;;;;;4.72;1.73;;;;;28.50;102475.00;;;;5056509;28;20574;-76
2022/05/09 10:00:26;;;;;;;2.47;1.30;;;;;28.60;102478.00;;;;5056821;28;20206;-77
2022/05/09 10:02:55;;;;;;;4.28;1.30;;;;;28.70;102472.00;;;;5048385;28;20191;-76
2022/05/09 10:05:33;;;;;;;4.15;1.23;;;;;28.70;102474.00;;;;5056449;28;20191;-75
2022/05/09 10:08:20;;;;;;;4.78;1.33;;;;;28.70;102467.00;;;;5057116;28;20203;-76
2022/05/09 10:11:02;;;;;;;2.55;1.40;;;;;28.80;102464.00;;;;5049584;28;20203;-76
2022/05/09 10:13:37;;;;;;;3.15;1.33;;;;;28.90;102464.00;;;;5049298;28;20678;-75
2022/05/09 10:16:08;;;;;;;3.72;1.60;;;;;29.00;102471.00;;;;5050212;28;20234;-75
2022/05/09 10:18:36;;;;;;;5.03;1.40;;;;;29.00;102466.00;;;;5051602;28;20619;-76
2022/05/09 10:24:47;;;;;;;3.20;1.55;;;;;29.00;102464.00;;;;5050292;28;20702;-76
2022/05/09 10:27:04;;;;;;;6.50;1.80;;;;;29.10;102447.00;;;;5014698;28;20357;-76
2022/05/09 10:29:39;;;;;;;2.03;1.23;;;;;29.10;102449.00;;;;5049934;28;20326;-76
2022/05/09 10:32:11;;;;;;;2.95;1.33;;;;;29.10;102453.00;;;;5051643;28;20222;-76
2022/05/09 10:34:47;;;;;;;3.22;1.98;;;;;29.20;102456.00;;;;5061852;28;20214;-77
2022/05/09 10:37:21;;;;;;;5.63;1.95;;;;;29.20;102453.00;;;;5050232;28;20266;-76
2022/05/09 10:39:55;;;;;;;2.28;1.40;;;;;29.30;102435.00;;;;5049347;28;20210;-77
2022/05/09 10:42:33;;;;;;;2.83;1.40;;;;;29.30;102442.00;;;;5049690;28;20199;-77
2022/05/09 10:45:07;;;;;;;3.03;1.73;;;;;29.30;102440.00;;;;5059005;28;20247;-76
2022/05/09 10:47:41;;;;;;;1.95;1.30;;;;;29.40;102437.00;;;;5069156;28;20229;-76
2022/05/09 10:50:13;;;;;;;6.60;2.05;;;;;29.40;102430.00;;;;5055187;28;20208;-76
2022/05/09 10:52:47;;;;;;;3.17;1.60;;;;;29.40;102427.00;;;;5049991;28;20200;-76
2022/05/09 10:55:21;;;;;;;2.72;1.20;;;;;29.40;102432.00;;;;5050289;28;20204;-76
2022/05/09 10:57:56;;;;;;;2.13;1.52;;;;;29.40;102425.00;;;;5049031;28;20223;-77
2022/05/09 11:00:27;;;;;;;4.95;1.80;;;;;29.50;102423.00;;;;5056968;28;20218;-76
2022/05/09 11:03:06;;;;;;;4.50;1.60;;;;;29.50;102423.00;;;;5054291;28;20214;-76
2022/05/09 11:05:45;;;;;;;2.10;1.30;;;;;29.50;102428.00;;;;5049749;28;20192;-76
2022/05/09 11:08:24;;;;;;;1.52;1.02;;;;;29.60;102418.00;;;;5049464;28;20784;-77
2022/05/09 11:11:00;;;;;;;4.70;1.52;;;;;29.70;102413.00;;;;5049729;28;20199;-76
2022/05/09 11:13:44;;;;;;;2.75;1.50;;;;;29.70;102418.00;;;;5049530;28;20203;-76
2022/05/09 11:16:19;;;;;;;2.70;1.42;;;;;29.70;102410.00;;;;5049697;28;20215;-77
2022/05/09 11:19:02;;;;;;;2.90;1.40;;;;;29.60;102407.00;;;;5051588;28;20199;-76
2022/05/09 11:21:41;;;;;;;6.10;2.13;;;;;29.60;102404.00;;;;5061373;28;20226;-76
2022/05/09 11:24:20;;;;;;;3.85;1.50;;;;;29.50;102398.00;;;;5069793;28;20208;-76
2022/05/09 11:26:53;;;;;;;4.53;1.85;;;;;29.50;102393.00;;;;5068891;28;20625;-77
2022/05/09 11:29:39;;;;;;;5.60;1.65;;;;;29.40;102392.00;;;;5049270;28;20200;-76
2022/05/09 11:32:24;;;;;;;2.33;1.65;;;;;29.40;102396.00;;;;5049671;28;20591;-76
2022/05/09 11:35:23;;;;;;;6.05;1.58;;;;;29.40;102393.00;;;;5048572;28;20206;-76
2022/05/09 11:38:15;;;;;;;2.80;1.92;;;;;29.50;102392.00;;;;5049130;28;20223;-76
2022/05/09 11:40:50;;;;;;;5.05;1.98;;;;;29.60;102387.00;;;;5047231;28;20215;-77
2022/05/09 11:43:33;;;;;;;3.95;2.00;;;;;29.60;102376.00;;;;5048723;28;20204;-77
2022/05/09 11:46:27;;;;;;;2.95;1.30;;;;;29.60;102375.00;;;;5050749;28;20246;-76
2022/05/09 11:49:18;;;;;;;4.15;1.90;;;;;29.70;102377.00;;;;5015444;28;20273;-78
2022/05/09 11:51:48;;;;;;;2.65;1.60;;;;;29.80;102376.00;;;;5048713;28;20196;-77
2022/05/09 11:54:23;;;;;;;3.08;1.63;;;;;29.80;102375.00;;;;5059367;28;20208;-76
2022/05/09 11:56:53;;;;;;;3.05;1.60;;;;;29.80;102372.00;;;;5048639;28;20642;-77
2022/05/09 11:59:25;;;;;;;5.53;1.70;;;;;29.80;102377.00;;;;5048636;28;20222;-76
2022/05/09 12:02:03;;;;;;;5.95;2.20;;;;;29.70;102370.00;;;;5049848;28;20212;-77
2022/05/09 12:04:35;;;;;;;4.50;1.80;;;;;29.80;102363.00;;;;5046416;28;20739;-76
2022/05/09 12:07:17;;;;;;;2.90;1.50;;;;;29.80;102363.00;;;;5052281;28;20671;-78
2022/05/09 12:10:03;;;;;;;2.15;1.50;;;;;29.70;102364.00;;;;5047372;28;20202;-77
2022/05/09 12:12:49;;;;;;;7.82;2.83;;;;;29.70;102366.00;;;;5057317;28;20192;-78
2022/05/09 12:15:51;;;;;;;5.03;1.80;;;;;29.70;102368.00;;;;5053988;28;20198;-77
2022/05/09 12:18:26;;;;;;;4.57;1.65;;;;;29.80;102362.00;;;;5071117;28;20605;-77
2022/05/09 12:21:14;;;;;;;2.67;1.60;;;;;29.70;102363.00;;;;5061317;28;20191;-78
2022/05/09 12:24:13;;;;;;;5.95;2.08;;;;;29.80;102358.00;;;;5059791;28;20238;-76
2022/05/09 12:26:42;;;;;;;3.90;2.03;;;;;29.90;102358.00;;;;5048904;28;20567;-76
2022/05/09 12:29:45;;;;;;;3.65;2.13;;;;;29.80;102349.00;;;;5060374;28;20211;-76
2022/05/09 12:32:14;;;;;;;6.85;2.15;;;;;29.90;102344.00;;;;5044196;28;20203;-77
2022/05/09 12:34:44;;;;;;;5.65;1.83;;;;;29.90;102338.00;;;;5047686;28;20211;-78
2022/05/09 12:37:15;;;;;;;4.50;2.00;;;;;29.90;102336.00;;;;5057486;28;20631;-78
2022/05/09 12:39:48;;;;;;;3.25;1.88;;;;;29.80;102333.00;;;;5076153;28;20196;-77
2022/05/09 12:42:28;;;;;;;4.57;1.50;;;;;29.80;102331.00;;;;5047901;28;20195;-77